sensor_id;sensor_type;location;lat;lon;timestamp;P1;durP1;ratioP1;P2;durP2;ratioP2
57321;SDS011;43159;51.006;18.224;2023-07-13T00:01:12;15.40;;;3.70;;
57321;SDS011;43159;51.006;18.224;2023-07-13T00:11:00;14.60;;;4.80;;
57321;SDS011;43159;51.006;18.224;2023-07-13T00:18:19;26.30;;;8.40;;
57321;SDS011;43159;51.006;18.224;2023-07-13T00:28:02;8.20;;;4.30;;
57321;SDS011;43159;51.006;18.224;2023-07-13T00:37:44;15.50;;;6.00;;
57321;SDS011;43159;51.006;18.224;2023-07-13T00:47:37;10.80;;;6.20;;
57321;SDS011;43159;51.006;18.224;2023-07-13T00:57:24;16.50;;;5.80;;
57321;SDS011;43159;51.006;18.224;2023-07-13T01:07:09;14.40;;;4.90;;
57321;SDS011;43159;51.006;18.224;2023-07-13T01:16:52;12.40;;;5.10;;
57321;SDS011;43159;51.006;18.224;2023-07-13T01:26:52;3.00;;;1.40;;
57321;SDS011;43159;51.006;18.224;2023-07-13T01:36:36;13.30;;;4.80;;
57321;SDS011;43159;51.006;18.224;2023-07-13T01:46:18;14.20;;;4.90;;
57321;SDS011;43159;51.006;18.224;2023-07-13T01:56:00;11.70;;;4.90;;
57321;SDS011;43159;51.006;18.224;2023-07-13T02:05:44;9.80;;;4.30;;
57321;SDS011;43159;51.006;18.224;2023-07-13T02:15:29;20.00;;;5.20;;
57321;SDS011;43159;51.006;18.224;2023-07-13T02:25:11;9.80;;;5.30;;
57321;SDS011;43159;51.006;18.224;2023-07-13T02:34:53;12.00;;;6.00;;
57321;SDS011;43159;51.006;18.224;2023-07-13T02:44:36;20.20;;;6.90;;
57321;SDS011;43159;51.006;18.224;2023-07-13T02:54:18;12.00;;;4.80;;
57321;SDS011;43159;51.006;18.224;2023-07-13T03:04:02;12.40;;;5.00;;
57321;SDS011;43159;51.006;18.224;2023-07-13T03:13:46;10.00;;;4.50;;
57321;SDS011;43159;51.006;18.224;2023-07-13T03:23:30;12.10;;;4.40;;
57321;SDS011;43159;51.006;18.224;2023-07-13T03:33:30;11.40;;;5.10;;
57321;SDS011;43159;51.006;18.224;2023-07-13T03:43:12;12.90;;;6.00;;
57321;SDS011;43159;51.006;18.224;2023-07-13T03:52:57;11.20;;;6.00;;
57321;SDS011;43159;51.006;18.224;2023-07-13T04:02:44;12.10;;;5.60;;
57321;SDS011;43159;51.006;18.224;2023-07-13T04:12:28;14.90;;;3.60;;
57321;SDS011;43159;51.006;18.224;2023-07-13T04:22:14;13.80;;;5.30;;
57321;SDS011;43159;51.006;18.224;2023-07-13T04:31:58;13.30;;;4.60;;
57321;SDS011;43159;51.006;18.224;2023-07-13T04:41:42;12.20;;;4.10;;
57321;SDS011;43159;51.006;18.224;2023-07-13T04:51:24;10.10;;;4.50;;
57321;SDS011;43159;51.006;18.224;2023-07-13T05:01:07;9.70;;;3.70;;
57321;SDS011;43159;51.006;18.224;2023-07-13T05:10:52;9.30;;;3.80;;
57321;SDS011;43159;51.006;18.224;2023-07-13T05:20:35;13.10;;;5.20;;
57321;SDS011;43159;51.006;18.224;2023-07-13T05:30:17;14.00;;;5.10;;
57321;SDS011;43159;51.006;18.224;2023-07-13T05:39:59;8.60;;;4.40;;
57321;SDS011;43159;51.006;18.224;2023-07-13T05:49:41;14.10;;;7.10;;
57321;SDS011;43159;51.006;18.224;2023-07-13T05:59:23;12.40;;;6.00;;
57321;SDS011;43159;51.006;18.224;2023-07-13T06:09:08;13.10;;;8.00;;
57321;SDS011;43159;51.006;18.224;2023-07-13T06:18:51;12.30;;;5.40;;
57321;SDS011;43159;51.006;18.224;2023-07-13T06:28:38;20.80;;;3.80;;
57321;SDS011;43159;51.006;18.224;2023-07-13T06:38:23;6.80;;;2.70;;
57321;SDS011;43159;51.006;18.224;2023-07-13T06:48:07;8.50;;;3.00;;
57321;SDS011;43159;51.006;18.224;2023-07-13T06:57:50;16.30;;;2.60;;
57321;SDS011;43159;51.006;18.224;2023-07-13T07:07:33;8.90;;;3.40;;
57321;SDS011;43159;51.006;18.224;2023-07-13T07:17:15;6.80;;;2.00;;
57321;SDS011;43159;51.006;18.224;2023-07-13T07:26:57;11.20;;;2.50;;
57321;SDS011;43159;51.006;18.224;2023-07-13T07:36:42;8.50;;;2.30;;
57321;SDS011;43159;51.006;18.224;2023-07-13T07:46:24;4.00;;;1.50;;
57321;SDS011;43159;51.006;18.224;2023-07-13T07:56:07;5.50;;;2.10;;
57321;SDS011;43159;51.006;18.224;2023-07-13T08:05:53;5.20;;;1.80;;
57321;SDS011;43159;51.006;18.224;2023-07-13T08:15:35;4.90;;;1.70;;
57321;SDS011;43159;51.006;18.224;2023-07-13T08:25:19;18.50;;;1.90;;
57321;SDS011;43159;51.006;18.224;2023-07-13T08:35:03;7.10;;;3.00;;
57321;SDS011;43159;51.006;18.224;2023-07-13T08:55:25;7.10;;;2.10;;
57321;SDS011;43159;51.006;18.224;2023-07-13T09:05:27;6.00;;;2.10;;
57321;SDS011;43159;51.006;18.224;2023-07-13T09:15:41;6.90;;;2.70;;
57321;SDS011;43159;51.006;18.224;2023-07-13T09:25:40;6.30;;;2.20;;
57321;SDS011;43159;51.006;18.224;2023-07-13T09:35:32;6.80;;;1.60;;
57321;SDS011;43159;51.006;18.224;2023-07-13T09:46:25;9.50;;;4.00;;
57321;SDS011;43159;51.006;18.224;2023-07-13T09:56:26;6.20;;;2.00;;
57321;SDS011;43159;51.006;18.224;2023-07-13T10:06:24;8.10;;;2.40;;
57321;SDS011;43159;51.006;18.224;2023-07-13T10:16:14;6.90;;;2.20;;
57321;SDS011;43159;51.006;18.224;2023-07-13T10:26:31;7.30;;;2.20;;
57321;SDS011;43159;51.006;18.224;2023-07-13T10:36:54;5.70;;;2.10;;
57321;SDS011;43159;51.006;18.224;2023-07-13T10:46:37;5.90;;;1.70;;
57321;SDS011;43159;51.006;18.224;2023-07-13T10:56:41;7.10;;;2.20;;
57321;SDS011;43159;51.006;18.224;2023-07-13T11:06:37;6.10;;;2.20;;
57321;SDS011;43159;51.006;18.224;2023-07-13T11:16:52;6.80;;;2.00;;
57321;SDS011;43159;51.006;18.224;2023-07-13T11:27:21;6.10;;;2.50;;
57321;SDS011;43159;51.006;18.224;2023-07-13T11:37:22;4.00;;;1.60;;
57321;SDS011;43159;51.006;18.224;2023-07-13T11:44:42;9.10;;;2.60;;
57321;SDS011;43159;51.006;18.224;2023-07-13T11:54:52;3.00;;;1.50;;
57321;SDS011;43159;51.006;18.224;2023-07-13T12:04:49;4.30;;;1.50;;
57321;SDS011;43159;51.006;18.224;2023-07-13T12:14:42;5.10;;;1.70;;
57321;SDS011;43159;51.006;18.224;2023-07-13T12:31:55;5.80;;;2.10;;
57321;SDS011;43159;51.006;18.224;2023-07-13T12:42:14;6.20;;;2.10;;
57321;SDS011;43159;51.006;18.224;2023-07-13T12:52:16;6.40;;;2.00;;
57321;SDS011;43159;51.006;18.224;2023-07-13T13:02:18;7.10;;;2.10;;
57321;SDS011;43159;51.006;18.224;2023-07-13T13:12:06;4.20;;;1.70;;
57321;SDS011;43159;51.006;18.224;2023-07-13T13:21:53;5.90;;;1.80;;
57321;SDS011;43159;51.006;18.224;2023-07-13T13:31:44;13.50;;;2.20;;
57321;SDS011;43159;51.006;18.224;2023-07-13T13:41:27;5.70;;;1.70;;
57321;SDS011;43159;51.006;18.224;2023-07-13T13:51:15;2.50;;;1.30;;
57321;SDS011;43159;51.006;18.224;2023-07-13T14:00:59;5.20;;;1.50;;
57321;SDS011;43159;51.006;18.224;2023-07-13T14:10:46;8.50;;;2.30;;
57321;SDS011;43159;51.006;18.224;2023-07-13T14:20:43;5.40;;;2.00;;
57321;SDS011;43159;51.006;18.224;2023-07-13T14:30:34;8.50;;;2.20;;
57321;SDS011;43159;51.006;18.224;2023-07-13T14:40:19;4.30;;;1.90;;
57321;SDS011;43159;51.006;18.224;2023-07-13T14:50:30;6.10;;;2.00;;
57321;SDS011;43159;51.006;18.224;2023-07-13T15:00:18;7.70;;;2.20;;
57321;SDS011;43159;51.006;18.224;2023-07-13T15:10:18;6.10;;;2.30;;
57321;SDS011;43159;51.006;18.224;2023-07-13T15:20:11;8.20;;;2.60;;
57321;SDS011;43159;51.006;18.224;2023-07-13T15:30:05;7.30;;;2.40;;
57321;SDS011;43159;51.006;18.224;2023-07-13T15:39:49;4.70;;;2.20;;
57321;SDS011;43159;51.006;18.224;2023-07-13T15:49:35;4.50;;;1.70;;
57321;SDS011;43159;51.006;18.224;2023-07-13T15:59:18;12.70;;;2.50;;
57321;SDS011;43159;51.006;18.224;2023-07-13T16:09:04;12.30;;;1.70;;
57321;SDS011;43159;51.006;18.224;2023-07-13T16:18:54;4.50;;;1.80;;
57321;SDS011;43159;51.006;18.224;2023-07-13T16:28:49;6.30;;;2.10;;
57321;SDS011;43159;51.006;18.224;2023-07-13T16:38:35;9.30;;;2.90;;
57321;SDS011;43159;51.006;18.224;2023-07-13T16:48:28;4.10;;;1.60;;
57321;SDS011;43159;51.006;18.224;2023-07-13T16:58:16;6.30;;;2.30;;
57321;SDS011;43159;51.006;18.224;2023-07-13T17:08:23;8.00;;;2.50;;
57321;SDS011;43159;51.006;18.224;2023-07-13T17:18:30;4.90;;;2.10;;
57321;SDS011;43159;51.006;18.224;2023-07-13T17:28:19;8.00;;;2.70;;
57321;SDS011;43159;51.006;18.224;2023-07-13T17:38:45;8.80;;;3.50;;
57321;SDS011;43159;51.006;18.224;2023-07-13T17:48:37;15.90;;;2.80;;
57321;SDS011;43159;51.006;18.224;2023-07-13T17:58:23;10.20;;;3.60;;
57321;SDS011;43159;51.006;18.224;2023-07-13T18:08:26;16.00;;;6.30;;
57321;SDS011;43159;51.006;18.224;2023-07-13T18:18:12;13.60;;;3.00;;
57321;SDS011;43159;51.006;18.224;2023-07-13T18:28:10;3.00;;;1.80;;
57321;SDS011;43159;51.006;18.224;2023-07-13T18:38:17;8.80;;;2.90;;
57321;SDS011;43159;51.006;18.224;2023-07-13T18:48:02;13.00;;;3.10;;
57321;SDS011;43159;51.006;18.224;2023-07-13T18:57:47;15.10;;;6.60;;
57321;SDS011;43159;51.006;18.224;2023-07-13T19:07:40;12.20;;;4.80;;
57321;SDS011;43159;51.006;18.224;2023-07-13T19:17:48;9.80;;;3.70;;
57321;SDS011;43159;51.006;18.224;2023-07-13T19:27:48;10.20;;;4.20;;
57321;SDS011;43159;51.006;18.224;2023-07-13T19:37:33;17.50;;;4.10;;
57321;SDS011;43159;51.006;18.224;2023-07-13T19:47:23;10.20;;;4.80;;
57321;SDS011;43159;51.006;18.224;2023-07-13T19:57:12;14.30;;;4.80;;
57321;SDS011;43159;51.006;18.224;2023-07-13T20:06:56;16.60;;;5.60;;
57321;SDS011;43159;51.006;18.224;2023-07-13T20:16:59;10.30;;;4.80;;
57321;SDS011;43159;51.006;18.224;2023-07-13T20:26:44;14.10;;;4.50;;
57321;SDS011;43159;51.006;18.224;2023-07-13T20:43:46;13.20;;;6.60;;
57321;SDS011;43159;51.006;18.224;2023-07-13T20:53:35;18.90;;;8.20;;
57321;SDS011;43159;51.006;18.224;2023-07-13T21:03:24;10.10;;;4.30;;
57321;SDS011;43159;51.006;18.224;2023-07-13T21:13:17;8.70;;;3.40;;
57321;SDS011;43159;51.006;18.224;2023-07-13T21:33:12;10.80;;;2.60;;
57321;SDS011;43159;51.006;18.224;2023-07-13T21:43:17;9.00;;;2.20;;
57321;SDS011;43159;51.006;18.224;2023-07-13T21:53:19;7.10;;;2.50;;
57321;SDS011;43159;51.006;18.224;2023-07-13T22:03:24;6.10;;;1.80;;
57321;SDS011;43159;51.006;18.224;2023-07-13T22:13:37;5.60;;;2.20;;
57321;SDS011;43159;51.006;18.224;2023-07-13T22:23:21;8.60;;;2.50;;
57321;SDS011;43159;51.006;18.224;2023-07-13T22:33:11;8.30;;;2.60;;
57321;SDS011;43159;51.006;18.224;2023-07-13T22:43:04;8.40;;;3.00;;
57321;SDS011;43159;51.006;18.224;2023-07-13T22:52:52;10.60;;;3.00;;
57321;SDS011;43159;51.006;18.224;2023-07-13T23:02:42;8.80;;;2.90;;
57321;SDS011;43159;51.006;18.224;2023-07-13T23:12:40;12.60;;;3.70;;
57321;SDS011;43159;51.006;18.224;2023-07-13T23:22:37;7.50;;;2.70;;
57321;SDS011;43159;51.006;18.224;2023-07-13T23:32:26;8.20;;;3.10;;
57321;SDS011;43159;51.006;18.224;2023-07-13T23:49:28;8.70;;;2.90;;
57321;SDS011;43159;51.006;18.224;2023-07-13T23:59:14;9.20;;;3.20;;
